createdAt,value
2022-07-26T00:00:14.592Z,97957.75
2022-07-26T00:02:47.902Z,97869.72
2022-07-26T00:05:16.647Z,97894.69
2022-07-26T00:07:44.728Z,97922.19
2022-07-26T00:10:12.215Z,97936.22
2022-07-26T00:12:39.702Z,97995.06
2022-07-26T00:15:09.549Z,97975.06
2022-07-26T00:17:36.227Z,97869.19
2022-07-26T00:20:04.262Z,97988.63
2022-07-26T00:22:30.860Z,97970.44
2022-07-26T00:24:57.501Z,97944.94
2022-07-26T00:27:24.195Z,97905.56
2022-07-26T00:29:52.487Z,97967.03
2022-07-26T00:32:19.135Z,97939.50
2022-07-26T00:34:45.930Z,97946.13
2022-07-26T00:37:15.979Z,97932.75
2022-07-26T00:39:46.705Z,97941.34
2022-07-26T00:42:13.280Z,97963.84
2022-07-26T00:44:49.048Z,97940.41
2022-07-26T00:47:16.046Z,97969.00
2022-07-26T00:49:43.386Z,97912.69
2022-07-26T00:52:11.141Z,97985.97
2022-07-26T00:54:39.477Z,97941.16
2022-07-26T00:57:06.582Z,97979.31
2022-07-26T00:59:33.330Z,97932.75
2022-07-26T01:02:00.244Z,97929.72
2022-07-26T01:04:26.986Z,97993.59
2022-07-26T01:06:54.408Z,97932.06
2022-07-26T01:09:21.420Z,97975.91
2022-07-26T01:11:48.296Z,97923.72
2022-07-26T01:14:15.513Z,97993.56
2022-07-26T01:16:42.154Z,97915.44
2022-07-26T01:19:08.829Z,97940.06
2022-07-26T01:21:35.623Z,97974.56
2022-07-26T01:24:02.497Z,97853.53
2022-07-26T01:26:29.182Z,97844.47
2022-07-26T01:28:55.988Z,97981.69
2022-07-26T01:31:22.898Z,97956.84
2022-07-26T01:33:50.551Z,97998.44
2022-07-26T01:36:17.491Z,98003.44
2022-07-26T01:38:44.671Z,97943.19
2022-07-26T01:41:11.920Z,98031.25
2022-07-26T01:43:38.783Z,97876.41
2022-07-26T01:46:08.100Z,98001.91
2022-07-26T01:48:35.269Z,97961.53
2022-07-26T01:51:02.236Z,97988.88
2022-07-26T01:53:28.872Z,97941.31
2022-07-26T01:55:55.492Z,97901.84
2022-07-26T01:58:22.576Z,97948.25
2022-07-26T02:00:49.757Z,98022.78
2022-07-26T02:03:16.513Z,97933.19
2022-07-26T02:05:43.303Z,97976.28
2022-07-26T02:08:11.064Z,98013.97
2022-07-26T02:10:37.865Z,97954.25
2022-07-26T02:13:04.500Z,98025.94
2022-07-26T02:15:34.541Z,97932.59
2022-07-26T02:18:01.108Z,97931.78
2022-07-26T02:20:27.803Z,98008.28
2022-07-26T02:22:54.385Z,97905.28
2022-07-26T02:25:21.017Z,97960.78
2022-07-26T02:27:47.649Z,97955.13
2022-07-26T02:30:14.321Z,97976.19
2022-07-26T02:32:43.316Z,97890.91
2022-07-26T02:35:10.788Z,97950.88
2022-07-26T02:37:40.831Z,97995.97
2022-07-26T02:40:14.310Z,97896.06
2022-07-26T02:42:45.390Z,97923.28
2022-07-26T02:45:11.981Z,97949.81
2022-07-26T02:47:49.874Z,97938.31
2022-07-26T02:50:18.783Z,97966.81
2022-07-26T02:52:45.804Z,97921.78
2022-07-26T02:55:12.695Z,97917.44
2022-07-26T02:57:45.462Z,97929.50
2022-07-26T03:00:20.993Z,97902.91
2022-07-26T03:02:48.635Z,97871.09
2022-07-26T03:05:15.267Z,97981.31
2022-07-26T03:07:42.010Z,97905.16
2022-07-26T03:10:09.040Z,97920.19
2022-07-26T03:12:35.713Z,97891.91
2022-07-26T03:15:02.550Z,97869.78
2022-07-26T03:17:29.262Z,97961.41
2022-07-26T03:22:43.241Z,97968.75
2022-07-26T03:25:09.829Z,97909.25
2022-07-26T03:27:36.517Z,97899.09
2022-07-26T03:30:04.130Z,97840.38
2022-07-26T03:32:30.825Z,98015.41
2022-07-26T03:34:57.431Z,98008.41
2022-07-26T03:37:24.502Z,97837.03
2022-07-26T03:39:51.106Z,97886.00
2022-07-26T03:42:17.853Z,97888.34
2022-07-26T03:44:44.473Z,97921.53
2022-07-26T03:47:11.226Z,97906.69
2022-07-26T03:49:37.915Z,97889.00
2022-07-26T03:52:04.888Z,98020.19
2022-07-26T03:54:31.798Z,97994.69
2022-07-26T03:56:58.621Z,97998.25
2022-07-26T03:59:25.256Z,98008.06
2022-07-26T04:01:52.168Z,97906.94
2022-07-26T04:04:19.180Z,97925.16
2022-07-26T04:06:52.098Z,97991.16
2022-07-26T04:09:19.595Z,97953.13
2022-07-26T04:11:46.282Z,97957.31
2022-07-26T04:17:03.914Z,97956.66
2022-07-26T04:19:30.606Z,98025.78
2022-07-26T04:21:57.214Z,97963.69
2022-07-26T04:24:25.357Z,97920.28
2022-07-26T04:26:52.722Z,97980.25
2022-07-26T04:29:19.293Z,97806.44
2022-07-26T04:31:46.054Z,97910.97
2022-07-26T04:36:56.728Z,97932.97
2022-07-26T04:39:23.299Z,97909.09
2022-07-26T04:41:50.412Z,97938.56
2022-07-26T04:44:17.127Z,98024.13
2022-07-26T04:46:45.282Z,97946.81
2022-07-26T04:49:12.738Z,98050.91
2022-07-26T04:51:39.476Z,98016.97
2022-07-26T04:54:06.398Z,97929.13
2022-07-26T04:56:33.379Z,97930.22
2022-07-26T04:59:00.196Z,97976.81
2022-07-26T05:01:26.961Z,97964.50
2022-07-26T05:03:53.558Z,98015.63
2022-07-26T05:06:20.288Z,98006.22
2022-07-26T05:08:46.839Z,97993.13
2022-07-26T05:11:13.638Z,97980.31
2022-07-26T05:13:40.692Z,97973.88
2022-07-26T05:16:11.613Z,98039.81
2022-07-26T05:18:49.981Z,98057.81
2022-07-26T05:21:29.757Z,98039.06
2022-07-26T05:23:59.878Z,98061.84
2022-07-26T05:26:27.763Z,98035.94
2022-07-26T05:28:56.558Z,98058.28
2022-07-26T05:31:29.186Z,98025.84
2022-07-26T05:34:01.715Z,98064.09
2022-07-26T05:36:41.153Z,98065.19
2022-07-26T05:47:52.418Z,98018.91
2022-07-26T05:50:19.710Z,98066.53
2022-07-26T05:52:46.346Z,98004.69
2022-07-26T05:55:13.242Z,97970.59
2022-07-26T05:57:39.893Z,97992.16
2022-07-26T06:00:07.979Z,98074.34
2022-07-26T06:02:39.192Z,98018.22
2022-07-26T06:05:06.533Z,98010.13
2022-07-26T06:07:33.407Z,98069.00
2022-07-26T06:10:00.210Z,98016.34
2022-07-26T06:12:27.013Z,98046.94
2022-07-26T06:14:53.622Z,98004.50
2022-07-26T06:17:20.294Z,98011.47
2022-07-26T06:19:47.894Z,97964.22
2022-07-26T06:22:15.395Z,97806.91
2022-07-26T06:24:42.079Z,97981.41
2022-07-26T06:27:08.686Z,97984.63
2022-07-26T06:29:35.369Z,97984.59
2022-07-26T06:32:02.219Z,98001.78
2022-07-26T06:34:29.516Z,98078.31
2022-07-26T06:36:56.129Z,98090.06
2022-07-26T06:39:25.198Z,97948.03
2022-07-26T06:41:51.924Z,97979.75
2022-07-26T06:44:21.850Z,97980.25
2022-07-26T06:46:48.580Z,97952.81
2022-07-26T06:49:19.384Z,98065.00
2022-07-26T06:51:50.177Z,98005.66
2022-07-26T06:54:16.807Z,98046.94
2022-07-26T06:56:43.687Z,98020.53
2022-07-26T06:59:10.298Z,98039.69
2022-07-26T07:01:58.272Z,98038.56
2022-07-26T07:04:23.982Z,98039.94
2022-07-26T07:06:50.711Z,98041.09
2022-07-26T07:09:17.379Z,98028.91
2022-07-26T07:11:45.969Z,98042.72
2022-07-26T07:14:15.711Z,98069.44
2022-07-26T07:16:42.616Z,98021.59
2022-07-26T07:19:09.408Z,98033.47
2022-07-26T07:21:36.068Z,98041.19
2022-07-26T07:24:02.799Z,98019.00
2022-07-26T07:26:29.606Z,97979.22
2022-07-26T07:28:56.457Z,98038.94
2022-07-26T07:31:30.219Z,98096.34
2022-07-26T07:33:57.937Z,98047.75
2022-07-26T07:36:26.831Z,98105.28
2022-07-26T07:38:54.197Z,98104.44
2022-07-26T07:41:21.746Z,98067.97
2022-07-26T07:43:48.409Z,98102.13
2022-07-26T07:46:15.044Z,98034.03
2022-07-26T07:48:46.789Z,98019.22
2022-07-26T07:51:14.708Z,98064.31
2022-07-26T07:53:56.973Z,98066.50
2022-07-26T07:56:25.398Z,98028.66
2022-07-26T07:58:52.398Z,98062.38
2022-07-26T08:01:19.535Z,98033.31
2022-07-26T08:03:50.667Z,98026.22
2022-07-26T08:06:17.716Z,98089.75
2022-07-26T08:08:44.697Z,98060.59
2022-07-26T08:11:12.802Z,98041.78
2022-07-26T08:13:39.760Z,97935.03
2022-07-26T08:16:09.359Z,98056.31
2022-07-26T08:18:39.603Z,98091.44
2022-07-26T08:21:15.824Z,98102.28
2022-07-26T08:23:42.550Z,98014.38
2022-07-26T08:26:09.818Z,98054.47
2022-07-26T08:28:59.885Z,98100.63
2022-07-26T08:31:23.320Z,98071.94
2022-07-26T08:33:49.909Z,97966.81
2022-07-26T08:36:17.101Z,98012.25
2022-07-26T08:38:44.623Z,98109.69
2022-07-26T08:41:14.301Z,98068.41
2022-07-26T08:43:52.260Z,98132.34
2022-07-26T08:46:25.285Z,98038.88
2022-07-26T08:48:53.550Z,98119.97
2022-07-26T08:51:21.874Z,98107.38
2022-07-26T08:53:49.373Z,98056.53
2022-07-26T08:56:15.981Z,98034.97
2022-07-26T08:58:42.685Z,97882.44
2022-07-26T09:01:12.112Z,98075.34
2022-07-26T09:03:40.165Z,98091.34
2022-07-26T09:06:20.528Z,98121.69
2022-07-26T09:08:50.139Z,98086.16
2022-07-26T09:11:46.361Z,98082.28
2022-07-26T09:14:13.035Z,98055.09
2022-07-26T09:16:40.989Z,98069.53
2022-07-26T09:19:19.604Z,98078.63
2022-07-26T09:21:49.079Z,98051.78
2022-07-26T09:24:39.087Z,98131.81
2022-07-26T09:27:07.973Z,98121.47
2022-07-26T09:29:49.069Z,98075.78
2022-07-26T09:32:26.495Z,98124.91
2022-07-26T09:34:58.814Z,98126.06
2022-07-26T09:37:42.770Z,97982.91
2022-07-26T09:40:19.311Z,98130.41
2022-07-26T09:43:00.065Z,98115.50
2022-07-26T09:45:28.320Z,98128.91
2022-07-26T09:47:55.464Z,98094.13
2022-07-26T09:50:24.806Z,98061.63
2022-07-26T09:53:08.114Z,98136.25
2022-07-26T09:55:53.552Z,98112.25
2022-07-26T09:58:24.311Z,98086.44
2022-07-26T10:00:52.775Z,98020.28
2022-07-26T10:03:19.789Z,97617.56
2022-07-26T10:05:48.068Z,98123.06
2022-07-26T10:08:15.502Z,97745.72
2022-07-26T10:10:48.195Z,97998.47
2022-07-26T10:13:18.798Z,98111.13
2022-07-26T10:15:51.094Z,97788.38
2022-07-26T10:18:38.077Z,98171.69
2022-07-26T10:21:28.540Z,97934.66
2022-07-26T10:24:00.169Z,97963.13
2022-07-26T10:26:33.116Z,98132.69
2022-07-26T10:29:25.868Z,98181.28
2022-07-26T10:31:59.230Z,98184.28
2022-07-26T10:34:31.374Z,97958.56
2022-07-26T10:37:04.493Z,98102.25
2022-07-26T10:39:33.396Z,98176.91
2022-07-26T10:42:03.148Z,97534.28
2022-07-26T10:44:31.871Z,98061.22
2022-07-26T10:47:03.593Z,98202.09
2022-07-26T10:49:38.350Z,97416.66
2022-07-26T10:52:26.818Z,97610.59
2022-07-26T10:54:56.758Z,98203.66
2022-07-26T10:57:24.781Z,98036.25
2022-07-26T10:59:56.274Z,98153.31
2022-07-26T11:02:30.056Z,98112.97
2022-07-26T11:05:00.773Z,98209.97
2022-07-26T11:07:28.731Z,98142.66
2022-07-26T11:10:00.071Z,98187.69
2022-07-26T11:12:28.602Z,98202.66
2022-07-26T11:14:55.410Z,98152.09
2022-07-26T11:17:27.434Z,98208.88
2022-07-26T11:19:55.545Z,98130.34
2022-07-26T11:22:22.784Z,98116.81
2022-07-26T11:24:49.480Z,98172.69
2022-07-26T11:27:16.077Z,98066.13
2022-07-26T11:29:42.804Z,98130.84
2022-07-26T11:32:23.723Z,98141.13
2022-07-26T11:35:01.062Z,98211.06
2022-07-26T11:37:28.328Z,98180.88
2022-07-26T11:39:54.923Z,98160.84
2022-07-26T11:42:21.816Z,98125.66
2022-07-26T11:44:50.394Z,98231.41
2022-07-26T11:47:25.545Z,97771.41
2022-07-26T11:50:21.617Z,97526.41
2022-07-26T11:52:43.733Z,97972.72
2022-07-26T11:55:14.221Z,97949.16
2022-07-26T11:57:41.384Z,97860.56
2022-07-26T12:00:08.883Z,98150.19
2022-07-26T12:02:38.854Z,98141.75
2022-07-26T12:05:20.737Z,98157.75
2022-07-26T12:07:58.196Z,98220.31
2022-07-26T12:10:25.786Z,98213.03
2022-07-26T12:13:13.907Z,98210.38
2022-07-26T12:15:45.739Z,98167.00
2022-07-26T12:18:21.930Z,98161.56
2022-07-26T12:21:09.571Z,98210.34
2022-07-26T12:23:54.574Z,98027.47
2022-07-26T12:26:30.349Z,98172.94
2022-07-26T12:28:58.081Z,98130.78
2022-07-26T12:31:30.045Z,98210.56
2022-07-26T12:33:57.323Z,97950.91
2022-07-26T12:36:27.424Z,98102.59
2022-07-26T12:38:58.269Z,98123.66
2022-07-26T12:41:39.115Z,98149.91
2022-07-26T12:44:07.334Z,98090.91
2022-07-26T12:46:35.865Z,97874.22
2022-07-26T12:49:04.434Z,98164.31
2022-07-26T12:51:31.207Z,98021.22
2022-07-26T12:53:57.908Z,98118.28
2022-07-26T12:56:24.537Z,98082.00
2022-07-26T12:58:51.190Z,97998.28
2022-07-26T13:01:17.939Z,98044.09
2022-07-26T13:03:44.740Z,98169.78
2022-07-26T13:06:11.384Z,98133.50
2022-07-26T13:08:38.186Z,98128.22
2022-07-26T13:11:04.876Z,98147.31
2022-07-26T13:13:31.513Z,98175.00
2022-07-26T13:15:58.722Z,98121.56
2022-07-26T13:18:25.578Z,98115.41
2022-07-26T13:20:52.153Z,98131.13
2022-07-26T13:23:21.589Z,98197.47
2022-07-26T13:25:49.667Z,98167.66
2022-07-26T13:28:17.185Z,98145.34
2022-07-26T13:30:44.264Z,98188.34
2022-07-26T13:33:11.120Z,98110.59
2022-07-26T13:35:37.677Z,98113.41
2022-07-26T13:38:04.629Z,98184.19
2022-07-26T13:40:33.984Z,98136.56
2022-07-26T13:43:01.674Z,98137.06
2022-07-26T13:45:29.789Z,98082.78
2022-07-26T13:47:59.126Z,98024.00
2022-07-26T13:50:27.428Z,98122.88
2022-07-26T13:52:55.924Z,98147.28
2022-07-26T13:55:25.223Z,98104.75
2022-07-26T13:57:56.620Z,98159.16
2022-07-26T14:00:28.864Z,98081.94
2022-07-26T14:02:57.837Z,98172.25
2022-07-26T14:05:25.449Z,98177.16
2022-07-26T14:07:52.850Z,98115.16
2022-07-26T14:10:20.129Z,98095.69
2022-07-26T14:12:47.640Z,98155.94
2022-07-26T14:15:21.154Z,98014.72
2022-07-26T14:17:49.262Z,98110.88
2022-07-26T14:20:16.178Z,98102.66
2022-07-26T14:22:42.864Z,98154.34
2022-07-26T14:25:09.832Z,98105.25
2022-07-26T14:27:36.560Z,98100.03
2022-07-26T14:30:04.550Z,98153.13
2022-07-26T14:32:31.431Z,98130.41
2022-07-26T14:34:59.113Z,98217.38
2022-07-26T14:37:44.361Z,98062.53
2022-07-26T14:40:14.861Z,97917.06
2022-07-26T14:42:47.525Z,97857.59
2022-07-26T14:45:15.177Z,98154.22
2022-07-26T14:47:42.281Z,98134.00
2022-07-26T14:50:10.645Z,98207.31
2022-07-26T14:52:45.690Z,98185.75
2022-07-26T14:55:13.791Z,98230.56
2022-07-26T14:57:41.058Z,98231.63
2022-07-26T15:00:11.210Z,98195.72
2022-07-26T15:02:42.106Z,98180.38
2022-07-26T15:05:10.670Z,98225.25
2022-07-26T15:07:38.064Z,98162.16
2022-07-26T15:10:05.997Z,98208.19
2022-07-26T15:12:32.722Z,98182.69
2022-07-26T15:14:59.687Z,98211.06
2022-07-26T15:17:26.283Z,98217.88
2022-07-26T15:19:53.130Z,98227.53
2022-07-26T15:22:19.920Z,98212.78
2022-07-26T15:24:46.667Z,98179.94
2022-07-26T15:27:13.257Z,98175.88
2022-07-26T15:29:40.061Z,98194.91
2022-07-26T15:32:06.846Z,98202.59
2022-07-26T15:34:33.788Z,98227.38
2022-07-26T15:37:01.709Z,98190.84
2022-07-26T15:39:28.382Z,98178.34
2022-07-26T15:41:55.130Z,98072.13
2022-07-26T15:44:23.735Z,98171.00
2022-07-26T15:46:52.832Z,98255.25
2022-07-26T15:49:19.975Z,98182.22
2022-07-26T15:51:46.673Z,98213.16
2022-07-26T15:54:15.173Z,98245.03
2022-07-26T15:56:43.563Z,98178.50
2022-07-26T15:59:10.283Z,98235.13
2022-07-26T16:01:37.525Z,98165.91
2022-07-26T16:32:33.932Z,98198.97
2022-07-26T16:35:00.699Z,98226.19
2022-07-26T16:37:27.347Z,98206.72
2022-07-26T16:39:54.248Z,98215.41
2022-07-26T16:42:21.933Z,98154.53
2022-07-26T16:44:48.607Z,98219.03
2022-07-26T16:47:15.402Z,98200.88
2022-07-26T16:49:42.065Z,98177.81
2022-07-26T16:52:08.939Z,98180.75
2022-07-26T16:54:35.753Z,98219.34
2022-07-26T16:57:02.591Z,98178.56
2022-07-26T16:59:29.211Z,98173.31
2022-07-26T17:01:56.118Z,98247.09
2022-07-26T17:04:26.581Z,98255.56
2022-07-26T17:07:22.311Z,98166.00
2022-07-26T17:09:43.182Z,98203.78
2022-07-26T17:12:12.259Z,98218.53
2022-07-26T17:14:39.007Z,98217.25
2022-07-26T17:17:05.617Z,98140.56
2022-07-26T17:19:32.569Z,98204.16
2022-07-26T17:21:59.230Z,98121.75
2022-07-26T17:24:25.942Z,98196.72
2022-07-26T17:26:52.776Z,98192.00
2022-07-26T17:29:19.457Z,98185.34
2022-07-26T17:31:46.111Z,98207.13
2022-07-26T17:34:13.080Z,98186.09
2022-07-26T17:36:39.718Z,98144.56
2022-07-26T17:39:10.035Z,98281.13
2022-07-26T17:41:42.603Z,98280.19
2022-07-26T17:44:14.164Z,98280.53
2022-07-26T17:46:41.138Z,98232.13
2022-07-26T17:49:08.822Z,98252.00
2022-07-26T17:51:35.564Z,98248.66
2022-07-26T17:54:02.294Z,98255.63
2022-07-26T17:56:29.763Z,98259.44
2022-07-26T17:58:56.690Z,98210.59
2022-07-26T18:01:23.720Z,98262.69
2022-07-26T18:03:50.480Z,98224.19
2022-07-26T18:06:17.615Z,98222.69
2022-07-26T18:08:44.465Z,98224.19
2022-07-26T18:11:11.124Z,98227.88
2022-07-26T18:13:38.043Z,98300.97
2022-07-26T18:16:06.242Z,98237.34
2022-07-26T18:18:33.330Z,98266.28
2022-07-26T18:20:59.964Z,98251.50
2022-07-26T18:23:26.713Z,98222.44
2022-07-26T18:25:53.359Z,98230.41
2022-07-26T18:28:20.059Z,98202.34
2022-07-26T18:30:46.779Z,98210.97
2022-07-26T18:33:13.520Z,98222.38
2022-07-26T18:35:40.649Z,98263.97
2022-07-26T18:38:07.477Z,98227.16
2022-07-26T18:40:36.011Z,98271.75
2022-07-26T18:43:02.884Z,98221.59
2022-07-26T18:45:29.465Z,98214.50
2022-07-26T18:47:56.295Z,98259.31
2022-07-26T18:50:23.118Z,98246.81
2022-07-26T18:52:49.816Z,98236.81
2022-07-26T18:55:16.557Z,98233.16
2022-07-26T18:57:43.992Z,98229.59
2022-07-26T19:00:14.323Z,98302.66
2022-07-26T19:02:41.732Z,98251.59
2022-07-26T19:05:08.751Z,98246.94
2022-07-26T19:07:35.445Z,98309.66
2022-07-26T19:10:02.082Z,98270.28
2022-07-26T19:12:28.718Z,98262.41
2022-07-26T19:14:55.361Z,98226.78
2022-07-26T19:17:22.638Z,98272.84
2022-07-26T19:19:49.257Z,98317.06
2022-07-26T19:22:15.963Z,98312.81
2022-07-26T19:24:42.570Z,98276.13
2022-07-26T19:27:09.339Z,98228.72
2022-07-26T19:29:37.748Z,98249.31
2022-07-26T19:32:05.482Z,98326.13
2022-07-26T19:34:32.076Z,98301.00
2022-07-26T19:36:58.794Z,98273.66
2022-07-26T19:39:25.829Z,98274.16
2022-07-26T19:41:52.788Z,98336.81
2022-07-26T19:44:20.137Z,98305.66
2022-07-26T19:46:47.178Z,98258.38
2022-07-26T19:49:15.023Z,98280.81
2022-07-26T19:51:42.649Z,98307.47
2022-07-26T19:54:09.698Z,98309.81
2022-07-26T19:56:37.452Z,98287.34
2022-07-26T19:59:04.040Z,98311.16
2022-07-26T20:01:30.828Z,98288.66
2022-07-26T20:03:57.463Z,98278.06
2022-07-26T20:06:24.987Z,98351.97
2022-07-26T20:08:51.643Z,98355.53
2022-07-26T20:11:18.568Z,98265.38
2022-07-26T20:13:46.103Z,98320.13
2022-07-26T20:16:12.876Z,98191.00
2022-07-26T20:18:39.512Z,98324.66
2022-07-26T20:21:07.577Z,98363.75
2022-07-26T20:23:34.168Z,98293.00
2022-07-26T20:26:01.355Z,98306.78
2022-07-26T20:28:27.940Z,98308.44
2022-07-26T20:30:54.746Z,98316.78
2022-07-26T20:33:22.144Z,98305.69
2022-07-26T20:35:54.436Z,98314.72
2022-07-26T20:38:21.776Z,98364.38
2022-07-26T20:40:48.424Z,98258.53
2022-07-26T20:43:15.019Z,98315.78
2022-07-26T20:45:41.690Z,98325.19
2022-07-26T20:48:08.984Z,98333.38
2022-07-26T20:50:35.719Z,98345.03
2022-07-26T20:53:03.291Z,98316.97
2022-07-26T20:55:30.160Z,98340.66
2022-07-26T20:57:56.960Z,98312.84
2022-07-26T21:00:32.735Z,98363.88
2022-07-26T21:02:59.842Z,98339.31
2022-07-26T21:05:30.842Z,98301.84
2022-07-26T21:07:59.962Z,98319.09
2022-07-26T21:10:28.097Z,98338.88
2022-07-26T21:12:55.031Z,98390.91
2022-07-26T21:15:21.754Z,98346.63
2022-07-26T21:17:48.629Z,98356.47
2022-07-26T21:20:15.288Z,98350.31
2022-07-26T21:22:44.294Z,98340.50
2022-07-26T21:25:11.070Z,98336.03
2022-07-26T21:27:38.472Z,98303.34
2022-07-26T21:30:07.076Z,98391.19
2022-07-26T21:32:35.361Z,98378.13
2022-07-26T21:35:02.071Z,98360.31
2022-07-26T21:37:28.929Z,98282.91
2022-07-26T21:39:55.570Z,98358.28
2022-07-26T21:42:27.761Z,98352.34
2022-07-26T21:44:56.134Z,98317.88
2022-07-26T21:47:28.585Z,98347.94
2022-07-26T21:49:55.239Z,98410.53
2022-07-26T21:52:21.837Z,98351.44
2022-07-26T21:54:48.798Z,98376.97
2022-07-26T21:57:15.438Z,98334.56
2022-07-26T21:59:42.136Z,98221.13
2022-07-26T22:02:08.866Z,98308.56
2022-07-26T22:04:35.679Z,98368.97
2022-07-26T22:07:02.375Z,98374.09
2022-07-26T22:09:34.749Z,98387.28
2022-07-26T22:12:04.186Z,98382.31
2022-07-26T22:14:30.761Z,98409.91
2022-07-26T22:16:57.442Z,98389.72
2022-07-26T22:19:24.375Z,98358.72
2022-07-26T22:21:51.109Z,98377.88
2022-07-26T22:24:20.356Z,98369.66
2022-07-26T22:26:47.204Z,98329.91
2022-07-26T22:29:14.308Z,98370.53
2022-07-26T22:31:41.472Z,98335.75
2022-07-26T22:34:08.265Z,98322.47
2022-07-26T22:36:34.893Z,98379.78
2022-07-26T22:39:01.884Z,98390.75
2022-07-26T22:41:31.708Z,98372.09
2022-07-26T22:43:59.296Z,98395.81
2022-07-26T22:46:39.881Z,98242.69
2022-07-26T22:49:06.522Z,98373.19
2022-07-26T22:51:39.055Z,98353.56
2022-07-26T22:54:05.760Z,98395.38
2022-07-26T22:56:32.406Z,98234.06
2022-07-26T22:58:59.377Z,98435.22
2022-07-26T23:01:26.178Z,98348.03
2022-07-26T23:03:52.838Z,98341.94
2022-07-26T23:06:23.849Z,98239.28
2022-07-26T23:08:58.463Z,98368.19
2022-07-26T23:11:25.185Z,98384.88
2022-07-26T23:13:51.893Z,98321.34
2022-07-26T23:16:26.596Z,98310.75
2022-07-26T23:18:53.287Z,98286.97
2022-07-26T23:21:20.055Z,98395.63
2022-07-26T23:23:46.706Z,98333.13
2022-07-26T23:26:13.361Z,98335.88
2022-07-26T23:28:40.009Z,98385.53
2022-07-26T23:31:11.825Z,98344.00
2022-07-26T23:33:50.890Z,98241.13
2022-07-26T23:36:24.485Z,98388.69
2022-07-26T23:38:51.679Z,98347.16
2022-07-26T23:41:18.276Z,98354.72
2022-07-26T23:43:44.949Z,98376.63
2022-07-26T23:46:11.571Z,98382.66
2022-07-26T23:48:38.413Z,98342.78
2022-07-26T23:51:05.380Z,98410.38
2022-07-26T23:53:32.093Z,98356.69
2022-07-26T23:55:58.687Z,98345.78
2022-07-26T23:58:25.438Z,98353.41
